sensor_id;sensor_type;location;lat;lon;timestamp;P1;durP1;ratioP1;P2;durP2;ratioP2
18520;SDS011;9390;51.244;6.982;2022-12-31T00:02:18;9.98;;;1.90;;
18520;SDS011;9390;51.244;6.982;2022-12-31T00:04:50;2.15;;;1.08;;
18520;SDS011;9390;51.244;6.982;2022-12-31T00:07:21;6.00;;;1.35;;
18520;SDS011;9390;51.244;6.982;2022-12-31T00:09:52;3.92;;;1.50;;
18520;SDS011;9390;51.244;6.982;2022-12-31T00:12:24;3.03;;;1.30;;
18520;SDS011;9390;51.244;6.982;2022-12-31T00:14:56;3.95;;;1.50;;
18520;SDS011;9390;51.244;6.982;2022-12-31T00:17:28;11.23;;;1.98;;
18520;SDS011;9390;51.244;6.982;2022-12-31T00:19:59;4.65;;;1.70;;
18520;SDS011;9390;51.244;6.982;2022-12-31T00:22:31;6.22;;;2.13;;
18520;SDS011;9390;51.244;6.982;2022-12-31T00:25:03;6.05;;;2.22;;
18520;SDS011;9390;51.244;6.982;2022-12-31T00:27:35;5.05;;;1.98;;
18520;SDS011;9390;51.244;6.982;2022-12-31T00:30:08;5.43;;;2.30;;
18520;SDS011;9390;51.244;6.982;2022-12-31T00:32:40;9.05;;;2.30;;
18520;SDS011;9390;51.244;6.982;2022-12-31T00:35:11;7.00;;;2.53;;
18520;SDS011;9390;51.244;6.982;2022-12-31T00:37:43;7.50;;;2.40;;
18520;SDS011;9390;51.244;6.982;2022-12-31T00:40:14;5.68;;;2.67;;
18520;SDS011;9390;51.244;6.982;2022-12-31T00:42:46;6.10;;;2.70;;
18520;SDS011;9390;51.244;6.982;2022-12-31T00:45:18;7.30;;;2.85;;
18520;SDS011;9390;51.244;6.982;2022-12-31T00:47:50;7.00;;;2.63;;
18520;SDS011;9390;51.244;6.982;2022-12-31T00:50:21;5.22;;;2.40;;
18520;SDS011;9390;51.244;6.982;2022-12-31T00:52:52;5.72;;;2.22;;
18520;SDS011;9390;51.244;6.982;2022-12-31T00:55:24;5.80;;;2.40;;
18520;SDS011;9390;51.244;6.982;2022-12-31T00:57:55;5.88;;;2.30;;
18520;SDS011;9390;51.244;6.982;2022-12-31T01:00:28;5.05;;;2.25;;
18520;SDS011;9390;51.244;6.982;2022-12-31T01:03:00;7.75;;;2.30;;
18520;SDS011;9390;51.244;6.982;2022-12-31T01:05:31;5.57;;;2.25;;
18520;SDS011;9390;51.244;6.982;2022-12-31T01:08:04;10.55;;;2.60;;
18520;SDS011;9390;51.244;6.982;2022-12-31T01:10:36;7.10;;;2.45;;
18520;SDS011;9390;51.244;6.982;2022-12-31T01:13:25;6.13;;;1.98;;
18520;SDS011;9390;51.244;6.982;2022-12-31T01:15:57;7.50;;;2.33;;
18520;SDS011;9390;51.244;6.982;2022-12-31T01:18:29;6.90;;;2.05;;
18520;SDS011;9390;51.244;6.982;2022-12-31T01:21:00;4.45;;;1.98;;
18520;SDS011;9390;51.244;6.982;2022-12-31T01:23:33;5.15;;;2.28;;
18520;SDS011;9390;51.244;6.982;2022-12-31T01:26:05;2.83;;;1.58;;
18520;SDS011;9390;51.244;6.982;2022-12-31T01:28:38;4.22;;;1.80;;
18520;SDS011;9390;51.244;6.982;2022-12-31T01:31:11;4.45;;;1.73;;
18520;SDS011;9390;51.244;6.982;2022-12-31T01:33:44;3.72;;;1.40;;
18520;SDS011;9390;51.244;6.982;2022-12-31T01:36:17;4.72;;;1.60;;
18520;SDS011;9390;51.244;6.982;2022-12-31T01:38:49;3.33;;;1.60;;
18520;SDS011;9390;51.244;6.982;2022-12-31T01:41:21;3.47;;;1.40;;
18520;SDS011;9390;51.244;6.982;2022-12-31T01:43:54;3.15;;;1.42;;
18520;SDS011;9390;51.244;6.982;2022-12-31T01:46:31;5.78;;;1.67;;
18520;SDS011;9390;51.244;6.982;2022-12-31T01:49:12;3.85;;;1.65;;
18520;SDS011;9390;51.244;6.982;2022-12-31T01:51:48;4.00;;;1.52;;
18520;SDS011;9390;51.244;6.982;2022-12-31T01:54:21;7.05;;;1.40;;
18520;SDS011;9390;51.244;6.982;2022-12-31T01:56:55;3.83;;;1.45;;
18520;SDS011;9390;51.244;6.982;2022-12-31T01:59:26;2.33;;;1.27;;
18520;SDS011;9390;51.244;6.982;2022-12-31T02:02:00;3.53;;;1.38;;
18520;SDS011;9390;51.244;6.982;2022-12-31T02:04:32;2.53;;;1.20;;
18520;SDS011;9390;51.244;6.982;2022-12-31T02:07:04;2.78;;;1.20;;
18520;SDS011;9390;51.244;6.982;2022-12-31T02:09:37;2.67;;;1.15;;
18520;SDS011;9390;51.244;6.982;2022-12-31T02:12:09;3.13;;;1.10;;
18520;SDS011;9390;51.244;6.982;2022-12-31T02:14:42;2.88;;;0.90;;
18520;SDS011;9390;51.244;6.982;2022-12-31T02:17:21;2.30;;;1.00;;
18520;SDS011;9390;51.244;6.982;2022-12-31T02:20:06;1.88;;;0.80;;
18520;SDS011;9390;51.244;6.982;2022-12-31T02:23:05;2.75;;;1.08;;
18520;SDS011;9390;51.244;6.982;2022-12-31T02:26:10;2.00;;;0.80;;
18520;SDS011;9390;51.244;6.982;2022-12-31T02:29:03;2.53;;;0.90;;
18520;SDS011;9390;51.244;6.982;2022-12-31T02:31:45;5.63;;;1.15;;
18520;SDS011;9390;51.244;6.982;2022-12-31T02:34:20;1.40;;;0.70;;
18520;SDS011;9390;51.244;6.982;2022-12-31T02:36:56;1.42;;;0.73;;
18520;SDS011;9390;51.244;6.982;2022-12-31T02:39:28;0.60;;;0.60;;
18520;SDS011;9390;51.244;6.982;2022-12-31T02:42:01;1.05;;;0.70;;
18520;SDS011;9390;51.244;6.982;2022-12-31T02:44:33;0.77;;;0.60;;
18520;SDS011;9390;51.244;6.982;2022-12-31T02:47:12;1.05;;;0.57;;
18520;SDS011;9390;51.244;6.982;2022-12-31T02:49:50;4.60;;;0.70;;
18520;SDS011;9390;51.244;6.982;2022-12-31T02:52:32;2.42;;;0.60;;
18520;SDS011;9390;51.244;6.982;2022-12-31T02:55:09;0.73;;;0.52;;
18520;SDS011;9390;51.244;6.982;2022-12-31T02:57:46;0.70;;;0.60;;
18520;SDS011;9390;51.244;6.982;2022-12-31T03:00:20;2.08;;;0.60;;
18520;SDS011;9390;51.244;6.982;2022-12-31T03:03:25;0.43;;;0.43;;
18520;SDS011;9390;51.244;6.982;2022-12-31T03:08:28;1.52;;;0.60;;
18520;SDS011;9390;51.244;6.982;2022-12-31T03:11:00;1.60;;;0.57;;
18520;SDS011;9390;51.244;6.982;2022-12-31T03:13:51;1.30;;;0.60;;
18520;SDS011;9390;51.244;6.982;2022-12-31T03:16:21;2.13;;;0.50;;
18520;SDS011;9390;51.244;6.982;2022-12-31T03:18:54;0.77;;;0.52;;
18520;SDS011;9390;51.244;6.982;2022-12-31T03:21:43;1.30;;;0.65;;
18520;SDS011;9390;51.244;6.982;2022-12-31T03:24:32;0.63;;;0.50;;
18520;SDS011;9390;51.244;6.982;2022-12-31T03:27:21;2.15;;;0.50;;
18520;SDS011;9390;51.244;6.982;2022-12-31T03:29:52;0.75;;;0.60;;
18520;SDS011;9390;51.244;6.982;2022-12-31T03:32:23;2.38;;;0.68;;
18520;SDS011;9390;51.244;6.982;2022-12-31T03:34:56;2.15;;;0.47;;
18520;SDS011;9390;51.244;6.982;2022-12-31T03:37:27;2.63;;;0.77;;
18520;SDS011;9390;51.244;6.982;2022-12-31T03:39:59;1.58;;;0.40;;
18520;SDS011;9390;51.244;6.982;2022-12-31T03:42:30;4.57;;;0.95;;
18520;SDS011;9390;51.244;6.982;2022-12-31T03:45:02;1.55;;;0.55;;
18520;SDS011;9390;51.244;6.982;2022-12-31T03:47:34;2.23;;;0.90;;
18520;SDS011;9390;51.244;6.982;2022-12-31T03:50:07;0.75;;;0.50;;
18520;SDS011;9390;51.244;6.982;2022-12-31T03:52:40;2.92;;;0.60;;
18520;SDS011;9390;51.244;6.982;2022-12-31T03:55:12;1.15;;;0.60;;
18520;SDS011;9390;51.244;6.982;2022-12-31T03:57:44;3.17;;;0.50;;
18520;SDS011;9390;51.244;6.982;2022-12-31T04:00:16;0.73;;;0.50;;
18520;SDS011;9390;51.244;6.982;2022-12-31T04:05:21;1.13;;;0.40;;
18520;SDS011;9390;51.244;6.982;2022-12-31T04:07:53;1.98;;;0.47;;
18520;SDS011;9390;51.244;6.982;2022-12-31T04:10:25;1.50;;;0.40;;
18520;SDS011;9390;51.244;6.982;2022-12-31T04:12:56;1.85;;;0.40;;
18520;SDS011;9390;51.244;6.982;2022-12-31T04:15:29;0.47;;;0.40;;
18520;SDS011;9390;51.244;6.982;2022-12-31T04:18:00;1.80;;;0.50;;
18520;SDS011;9390;51.244;6.982;2022-12-31T04:20:33;1.23;;;0.55;;
18520;SDS011;9390;51.244;6.982;2022-12-31T04:23:04;1.25;;;0.45;;
18520;SDS011;9390;51.244;6.982;2022-12-31T04:25:36;1.55;;;0.52;;
18520;SDS011;9390;51.244;6.982;2022-12-31T04:28:07;1.25;;;0.60;;
18520;SDS011;9390;51.244;6.982;2022-12-31T04:30:38;0.40;;;0.40;;
18520;SDS011;9390;51.244;6.982;2022-12-31T04:33:10;2.53;;;0.60;;
18520;SDS011;9390;51.244;6.982;2022-12-31T04:35:42;2.55;;;0.63;;
18520;SDS011;9390;51.244;6.982;2022-12-31T04:38:14;2.47;;;0.50;;
18520;SDS011;9390;51.244;6.982;2022-12-31T04:40:45;0.50;;;0.50;;
18520;SDS011;9390;51.244;6.982;2022-12-31T04:43:30;0.98;;;0.52;;
18520;SDS011;9390;51.244;6.982;2022-12-31T04:46:02;2.58;;;0.63;;
18520;SDS011;9390;51.244;6.982;2022-12-31T04:48:33;2.83;;;0.93;;
18520;SDS011;9390;51.244;6.982;2022-12-31T04:51:07;0.40;;;0.40;;
18520;SDS011;9390;51.244;6.982;2022-12-31T04:53:38;2.92;;;0.60;;
18520;SDS011;9390;51.244;6.982;2022-12-31T04:56:10;1.50;;;0.60;;
18520;SDS011;9390;51.244;6.982;2022-12-31T04:58:41;1.05;;;0.50;;
18520;SDS011;9390;51.244;6.982;2022-12-31T05:01:13;1.65;;;0.65;;
18520;SDS011;9390;51.244;6.982;2022-12-31T05:03:45;1.00;;;0.60;;
18520;SDS011;9390;51.244;6.982;2022-12-31T05:06:18;0.93;;;0.60;;
18520;SDS011;9390;51.244;6.982;2022-12-31T05:08:50;1.33;;;0.60;;
18520;SDS011;9390;51.244;6.982;2022-12-31T05:11:21;2.33;;;0.70;;
18520;SDS011;9390;51.244;6.982;2022-12-31T05:13:53;0.75;;;0.50;;
18520;SDS011;9390;51.244;6.982;2022-12-31T05:16:24;1.40;;;0.52;;
18520;SDS011;9390;51.244;6.982;2022-12-31T05:18:56;1.48;;;0.60;;
18520;SDS011;9390;51.244;6.982;2022-12-31T05:21:28;3.90;;;1.13;;
18520;SDS011;9390;51.244;6.982;2022-12-31T05:24:00;1.55;;;0.50;;
18520;SDS011;9390;51.244;6.982;2022-12-31T05:26:31;2.10;;;0.65;;
18520;SDS011;9390;51.244;6.982;2022-12-31T05:29:02;1.83;;;0.60;;
18520;SDS011;9390;51.244;6.982;2022-12-31T05:31:34;1.75;;;0.60;;
18520;SDS011;9390;51.244;6.982;2022-12-31T05:34:05;2.33;;;0.57;;
18520;SDS011;9390;51.244;6.982;2022-12-31T05:36:38;7.75;;;0.80;;
18520;SDS011;9390;51.244;6.982;2022-12-31T05:39:09;3.25;;;0.70;;
18520;SDS011;9390;51.244;6.982;2022-12-31T05:41:40;4.72;;;0.80;;
18520;SDS011;9390;51.244;6.982;2022-12-31T05:44:12;1.85;;;0.52;;
18520;SDS011;9390;51.244;6.982;2022-12-31T05:46:43;2.50;;;0.75;;
18520;SDS011;9390;51.244;6.982;2022-12-31T05:49:15;2.22;;;0.77;;
18520;SDS011;9390;51.244;6.982;2022-12-31T05:51:48;1.50;;;0.60;;
18520;SDS011;9390;51.244;6.982;2022-12-31T05:54:20;4.20;;;0.80;;
18520;SDS011;9390;51.244;6.982;2022-12-31T05:56:51;3.30;;;0.60;;
18520;SDS011;9390;51.244;6.982;2022-12-31T05:59:22;2.38;;;0.60;;
18520;SDS011;9390;51.244;6.982;2022-12-31T06:01:54;2.72;;;0.60;;
18520;SDS011;9390;51.244;6.982;2022-12-31T06:04:25;3.33;;;0.50;;
18520;SDS011;9390;51.244;6.982;2022-12-31T06:06:58;3.17;;;0.70;;
18520;SDS011;9390;51.244;6.982;2022-12-31T06:09:30;3.85;;;0.88;;
18520;SDS011;9390;51.244;6.982;2022-12-31T06:12:01;9.98;;;0.82;;
18520;SDS011;9390;51.244;6.982;2022-12-31T06:14:33;4.78;;;0.90;;
18520;SDS011;9390;51.244;6.982;2022-12-31T06:17:04;2.97;;;0.70;;
18520;SDS011;9390;51.244;6.982;2022-12-31T06:19:36;2.15;;;0.63;;
18520;SDS011;9390;51.244;6.982;2022-12-31T06:22:08;2.35;;;0.85;;
18520;SDS011;9390;51.244;6.982;2022-12-31T06:24:40;4.05;;;0.90;;
18520;SDS011;9390;51.244;6.982;2022-12-31T06:27:11;4.03;;;0.60;;
18520;SDS011;9390;51.244;6.982;2022-12-31T06:29:43;3.95;;;0.68;;
18520;SDS011;9390;51.244;6.982;2022-12-31T06:32:14;7.07;;;1.05;;
18520;SDS011;9390;51.244;6.982;2022-12-31T06:34:46;2.35;;;0.68;;
18520;SDS011;9390;51.244;6.982;2022-12-31T06:37:18;1.45;;;0.60;;
18520;SDS011;9390;51.244;6.982;2022-12-31T06:39:50;3.90;;;0.85;;
18520;SDS011;9390;51.244;6.982;2022-12-31T06:42:21;5.03;;;0.80;;
18520;SDS011;9390;51.244;6.982;2022-12-31T06:44:52;3.35;;;0.88;;
18520;SDS011;9390;51.244;6.982;2022-12-31T06:47:24;2.00;;;0.70;;
18520;SDS011;9390;51.244;6.982;2022-12-31T06:49:56;3.10;;;0.60;;
18520;SDS011;9390;51.244;6.982;2022-12-31T06:52:28;5.50;;;0.82;;
18520;SDS011;9390;51.244;6.982;2022-12-31T06:55:00;7.40;;;1.10;;
18520;SDS011;9390;51.244;6.982;2022-12-31T06:57:32;2.63;;;0.82;;
18520;SDS011;9390;51.244;6.982;2022-12-31T07:00:04;3.88;;;1.00;;
18520;SDS011;9390;51.244;6.982;2022-12-31T07:05:23;2.47;;;0.70;;
18520;SDS011;9390;51.244;6.982;2022-12-31T07:08:03;4.20;;;0.80;;
18520;SDS011;9390;51.244;6.982;2022-12-31T07:10:41;5.18;;;1.00;;
18520;SDS011;9390;51.244;6.982;2022-12-31T07:13:24;4.47;;;0.88;;
18520;SDS011;9390;51.244;6.982;2022-12-31T07:16:06;2.80;;;0.80;;
18520;SDS011;9390;51.244;6.982;2022-12-31T07:18:44;1.05;;;0.57;;
18520;SDS011;9390;51.244;6.982;2022-12-31T07:21:17;3.88;;;1.00;;
18520;SDS011;9390;51.244;6.982;2022-12-31T07:24:09;3.00;;;0.98;;
18520;SDS011;9390;51.244;6.982;2022-12-31T07:26:49;6.05;;;1.15;;
18520;SDS011;9390;51.244;6.982;2022-12-31T07:29:29;3.25;;;0.90;;
18520;SDS011;9390;51.244;6.982;2022-12-31T07:32:09;2.38;;;0.70;;
18520;SDS011;9390;51.244;6.982;2022-12-31T07:34:53;4.15;;;0.77;;
18520;SDS011;9390;51.244;6.982;2022-12-31T07:37:30;2.70;;;0.98;;
18520;SDS011;9390;51.244;6.982;2022-12-31T07:40:10;3.33;;;0.95;;
18520;SDS011;9390;51.244;6.982;2022-12-31T07:42:50;4.97;;;1.10;;
18520;SDS011;9390;51.244;6.982;2022-12-31T07:45:31;5.75;;;1.10;;
18520;SDS011;9390;51.244;6.982;2022-12-31T07:48:06;5.50;;;1.48;;
18520;SDS011;9390;51.244;6.982;2022-12-31T07:50:47;1.02;;;0.68;;
18520;SDS011;9390;51.244;6.982;2022-12-31T07:53:19;3.80;;;0.80;;
18520;SDS011;9390;51.244;6.982;2022-12-31T07:55:53;2.33;;;0.90;;
18520;SDS011;9390;51.244;6.982;2022-12-31T07:58:28;1.95;;;0.70;;
18520;SDS011;9390;51.244;6.982;2022-12-31T08:01:04;3.30;;;0.80;;
18520;SDS011;9390;51.244;6.982;2022-12-31T08:03:41;4.55;;;0.85;;
18520;SDS011;9390;51.244;6.982;2022-12-31T08:06:18;3.88;;;0.93;;
18520;SDS011;9390;51.244;6.982;2022-12-31T08:08:57;4.13;;;1.00;;
18520;SDS011;9390;51.244;6.982;2022-12-31T08:11:36;2.45;;;0.90;;
18520;SDS011;9390;51.244;6.982;2022-12-31T08:14:09;3.08;;;0.70;;
18520;SDS011;9390;51.244;6.982;2022-12-31T08:16:42;2.70;;;0.80;;
18520;SDS011;9390;51.244;6.982;2022-12-31T08:19:15;4.35;;;0.80;;
18520;SDS011;9390;51.244;6.982;2022-12-31T08:21:57;3.10;;;0.80;;
18520;SDS011;9390;51.244;6.982;2022-12-31T08:24:39;2.22;;;0.80;;
18520;SDS011;9390;51.244;6.982;2022-12-31T08:27:21;2.05;;;0.88;;
18520;SDS011;9390;51.244;6.982;2022-12-31T08:29:58;5.22;;;0.98;;
18520;SDS011;9390;51.244;6.982;2022-12-31T08:32:34;4.38;;;0.80;;
18520;SDS011;9390;51.244;6.982;2022-12-31T08:35:13;5.05;;;1.02;;
18520;SDS011;9390;51.244;6.982;2022-12-31T08:37:54;5.97;;;1.30;;
18520;SDS011;9390;51.244;6.982;2022-12-31T08:40:32;2.67;;;0.80;;
18520;SDS011;9390;51.244;6.982;2022-12-31T08:43:19;2.72;;;0.80;;
18520;SDS011;9390;51.244;6.982;2022-12-31T08:45:56;3.00;;;0.90;;
18520;SDS011;9390;51.244;6.982;2022-12-31T08:48:29;4.35;;;0.88;;
18520;SDS011;9390;51.244;6.982;2022-12-31T08:51:03;4.07;;;1.17;;
18520;SDS011;9390;51.244;6.982;2022-12-31T08:53:35;4.60;;;1.02;;
18520;SDS011;9390;51.244;6.982;2022-12-31T08:56:09;5.75;;;0.98;;
18520;SDS011;9390;51.244;6.982;2022-12-31T08:58:46;4.68;;;0.98;;
18520;SDS011;9390;51.244;6.982;2022-12-31T09:01:21;4.05;;;1.08;;
18520;SDS011;9390;51.244;6.982;2022-12-31T09:04:00;3.78;;;0.80;;
18520;SDS011;9390;51.244;6.982;2022-12-31T09:06:39;6.47;;;1.42;;
18520;SDS011;9390;51.244;6.982;2022-12-31T09:09:13;6.68;;;1.10;;
18520;SDS011;9390;51.244;6.982;2022-12-31T09:11:51;6.65;;;1.00;;
18520;SDS011;9390;51.244;6.982;2022-12-31T09:14:32;2.58;;;0.93;;
18520;SDS011;9390;51.244;6.982;2022-12-31T09:17:15;7.05;;;1.08;;
18520;SDS011;9390;51.244;6.982;2022-12-31T09:19:59;2.35;;;0.80;;
18520;SDS011;9390;51.244;6.982;2022-12-31T09:22:31;4.57;;;1.20;;
18520;SDS011;9390;51.244;6.982;2022-12-31T09:25:03;4.45;;;1.00;;
18520;SDS011;9390;51.244;6.982;2022-12-31T09:27:37;5.07;;;1.10;;
18520;SDS011;9390;51.244;6.982;2022-12-31T09:30:13;6.25;;;1.00;;
18520;SDS011;9390;51.244;6.982;2022-12-31T09:32:47;4.07;;;1.00;;
18520;SDS011;9390;51.244;6.982;2022-12-31T09:35:25;4.53;;;1.38;;
18520;SDS011;9390;51.244;6.982;2022-12-31T09:38:03;4.10;;;1.00;;
18520;SDS011;9390;51.244;6.982;2022-12-31T09:40:57;4.47;;;0.93;;
18520;SDS011;9390;51.244;6.982;2022-12-31T09:44:00;2.17;;;0.95;;
18520;SDS011;9390;51.244;6.982;2022-12-31T09:47:03;4.97;;;1.23;;
18520;SDS011;9390;51.244;6.982;2022-12-31T09:52:57;5.38;;;1.42;;
18520;SDS011;9390;51.244;6.982;2022-12-31T09:55:58;6.40;;;1.25;;
18520;SDS011;9390;51.244;6.982;2022-12-31T09:58:37;3.78;;;0.93;;
18520;SDS011;9390;51.244;6.982;2022-12-31T10:01:16;6.78;;;1.35;;
18520;SDS011;9390;51.244;6.982;2022-12-31T10:07:01;3.63;;;1.20;;
18520;SDS011;9390;51.244;6.982;2022-12-31T10:09:41;4.07;;;0.98;;
18520;SDS011;9390;51.244;6.982;2022-12-31T10:12:32;7.15;;;1.33;;
18520;SDS011;9390;51.244;6.982;2022-12-31T10:15:17;3.78;;;1.10;;
18520;SDS011;9390;51.244;6.982;2022-12-31T10:18:11;4.53;;;1.10;;
18520;SDS011;9390;51.244;6.982;2022-12-31T10:21:00;6.07;;;1.13;;
18520;SDS011;9390;51.244;6.982;2022-12-31T10:23:46;4.53;;;1.23;;
18520;SDS011;9390;51.244;6.982;2022-12-31T10:26:24;4.47;;;1.27;;
18520;SDS011;9390;51.244;6.982;2022-12-31T10:28:58;7.78;;;1.20;;
18520;SDS011;9390;51.244;6.982;2022-12-31T10:31:38;6.15;;;1.10;;
18520;SDS011;9390;51.244;6.982;2022-12-31T10:34:14;5.43;;;1.38;;
18520;SDS011;9390;51.244;6.982;2022-12-31T10:36:56;4.55;;;1.00;;
18520;SDS011;9390;51.244;6.982;2022-12-31T10:39:37;6.85;;;1.20;;
18520;SDS011;9390;51.244;6.982;2022-12-31T10:42:19;2.88;;;0.90;;
18520;SDS011;9390;51.244;6.982;2022-12-31T10:51:49;5.55;;;1.13;;
18520;SDS011;9390;51.244;6.982;2022-12-31T10:54:44;5.25;;;1.13;;
18520;SDS011;9390;51.244;6.982;2022-12-31T10:57:47;3.63;;;0.95;;
18520;SDS011;9390;51.244;6.982;2022-12-31T11:00:27;3.75;;;1.00;;
18520;SDS011;9390;51.244;6.982;2022-12-31T11:12:26;6.20;;;1.48;;
18520;SDS011;9390;51.244;6.982;2022-12-31T11:15:16;8.45;;;1.45;;
18520;SDS011;9390;51.244;6.982;2022-12-31T11:17:56;3.42;;;1.20;;
18520;SDS011;9390;51.244;6.982;2022-12-31T11:20:36;4.00;;;1.10;;
18520;SDS011;9390;51.244;6.982;2022-12-31T11:23:19;5.47;;;1.25;;
18520;SDS011;9390;51.244;6.982;2022-12-31T11:25:59;8.10;;;1.27;;
18520;SDS011;9390;51.244;6.982;2022-12-31T11:28:44;4.30;;;1.20;;
18520;SDS011;9390;51.244;6.982;2022-12-31T11:31:30;7.00;;;1.10;;
18520;SDS011;9390;51.244;6.982;2022-12-31T11:34:16;5.63;;;1.10;;
18520;SDS011;9390;51.244;6.982;2022-12-31T11:36:59;4.40;;;1.17;;
18520;SDS011;9390;51.244;6.982;2022-12-31T11:39:43;5.03;;;1.20;;
18520;SDS011;9390;51.244;6.982;2022-12-31T11:42:20;5.05;;;1.35;;
18520;SDS011;9390;51.244;6.982;2022-12-31T11:44:56;4.40;;;1.50;;
18520;SDS011;9390;51.244;6.982;2022-12-31T11:47:42;7.97;;;1.27;;
18520;SDS011;9390;51.244;6.982;2022-12-31T11:50:25;5.43;;;1.35;;
18520;SDS011;9390;51.244;6.982;2022-12-31T11:53:02;2.13;;;1.02;;
18520;SDS011;9390;51.244;6.982;2022-12-31T11:55:42;4.57;;;1.20;;
18520;SDS011;9390;51.244;6.982;2022-12-31T11:58:21;7.68;;;1.67;;
18520;SDS011;9390;51.244;6.982;2022-12-31T12:01:00;4.75;;;1.50;;
18520;SDS011;9390;51.244;6.982;2022-12-31T12:03:35;10.52;;;1.30;;
18520;SDS011;9390;51.244;6.982;2022-12-31T12:06:12;3.63;;;1.58;;
18520;SDS011;9390;51.244;6.982;2022-12-31T12:08:44;8.68;;;1.27;;
18520;SDS011;9390;51.244;6.982;2022-12-31T12:11:17;8.90;;;1.40;;
18520;SDS011;9390;51.244;6.982;2022-12-31T12:13:51;5.68;;;1.30;;
18520;SDS011;9390;51.244;6.982;2022-12-31T12:16:24;6.82;;;1.35;;
18520;SDS011;9390;51.244;6.982;2022-12-31T12:19:03;5.25;;;1.02;;
18520;SDS011;9390;51.244;6.982;2022-12-31T12:21:43;9.98;;;1.70;;
18520;SDS011;9390;51.244;6.982;2022-12-31T12:24:18;5.85;;;1.08;;
18520;SDS011;9390;51.244;6.982;2022-12-31T12:26:50;7.53;;;1.50;;
18520;SDS011;9390;51.244;6.982;2022-12-31T12:29:22;4.85;;;1.33;;
18520;SDS011;9390;51.244;6.982;2022-12-31T12:31:57;7.30;;;1.30;;
18520;SDS011;9390;51.244;6.982;2022-12-31T12:34:30;5.72;;;1.10;;
18520;SDS011;9390;51.244;6.982;2022-12-31T12:37:02;5.28;;;1.25;;
18520;SDS011;9390;51.244;6.982;2022-12-31T12:39:34;4.20;;;1.10;;
18520;SDS011;9390;51.244;6.982;2022-12-31T12:44:38;6.60;;;1.48;;
18520;SDS011;9390;51.244;6.982;2022-12-31T12:47:13;8.90;;;1.50;;
18520;SDS011;9390;51.244;6.982;2022-12-31T12:49:46;5.15;;;1.23;;
18520;SDS011;9390;51.244;6.982;2022-12-31T12:52:24;8.38;;;1.42;;
18520;SDS011;9390;51.244;6.982;2022-12-31T12:55:23;4.95;;;1.33;;
18520;SDS011;9390;51.244;6.982;2022-12-31T12:57:59;4.82;;;1.67;;
18520;SDS011;9390;51.244;6.982;2022-12-31T13:00:36;5.28;;;1.50;;
18520;SDS011;9390;51.244;6.982;2022-12-31T13:03:16;7.00;;;1.25;;
18520;SDS011;9390;51.244;6.982;2022-12-31T13:06:04;11.27;;;1.52;;
18520;SDS011;9390;51.244;6.982;2022-12-31T13:08:52;7.85;;;2.17;;
18520;SDS011;9390;51.244;6.982;2022-12-31T13:11:31;8.13;;;1.55;;
18520;SDS011;9390;51.244;6.982;2022-12-31T13:14:12;9.10;;;1.67;;
18520;SDS011;9390;51.244;6.982;2022-12-31T13:16:49;6.53;;;1.33;;
18520;SDS011;9390;51.244;6.982;2022-12-31T13:19:28;7.68;;;1.50;;
18520;SDS011;9390;51.244;6.982;2022-12-31T13:22:03;5.82;;;1.60;;
18520;SDS011;9390;51.244;6.982;2022-12-31T13:24:43;4.95;;;1.45;;
18520;SDS011;9390;51.244;6.982;2022-12-31T13:27:20;3.72;;;1.17;;
18520;SDS011;9390;51.244;6.982;2022-12-31T13:29:55;4.88;;;1.33;;
18520;SDS011;9390;51.244;6.982;2022-12-31T13:32:33;8.20;;;1.40;;
18520;SDS011;9390;51.244;6.982;2022-12-31T13:35:17;5.25;;;1.42;;
18520;SDS011;9390;51.244;6.982;2022-12-31T13:37:55;7.28;;;1.45;;
18520;SDS011;9390;51.244;6.982;2022-12-31T13:40:31;5.35;;;1.33;;
18520;SDS011;9390;51.244;6.982;2022-12-31T13:43:12;7.07;;;1.48;;
18520;SDS011;9390;51.244;6.982;2022-12-31T13:45:50;5.15;;;1.35;;
18520;SDS011;9390;51.244;6.982;2022-12-31T13:48:31;5.15;;;1.27;;
18520;SDS011;9390;51.244;6.982;2022-12-31T13:51:10;4.68;;;1.17;;
18520;SDS011;9390;51.244;6.982;2022-12-31T13:53:45;5.75;;;1.20;;
18520;SDS011;9390;51.244;6.982;2022-12-31T13:56:21;7.60;;;1.30;;
18520;SDS011;9390;51.244;6.982;2022-12-31T13:58:56;4.80;;;1.40;;
18520;SDS011;9390;51.244;6.982;2022-12-31T14:01:31;7.13;;;1.55;;
18520;SDS011;9390;51.244;6.982;2022-12-31T14:04:07;7.68;;;1.33;;
18520;SDS011;9390;51.244;6.982;2022-12-31T14:06:45;5.60;;;1.40;;
18520;SDS011;9390;51.244;6.982;2022-12-31T14:09:21;7.10;;;1.73;;
18520;SDS011;9390;51.244;6.982;2022-12-31T14:11:58;6.57;;;1.50;;
18520;SDS011;9390;51.244;6.982;2022-12-31T14:14:45;5.65;;;1.67;;
18520;SDS011;9390;51.244;6.982;2022-12-31T14:17:23;5.95;;;1.60;;
18520;SDS011;9390;51.244;6.982;2022-12-31T14:20:00;6.47;;;1.77;;
18520;SDS011;9390;51.244;6.982;2022-12-31T14:22:41;4.93;;;1.70;;
18520;SDS011;9390;51.244;6.982;2022-12-31T14:25:16;6.60;;;1.70;;
18520;SDS011;9390;51.244;6.982;2022-12-31T14:27:52;6.25;;;1.70;;
18520;SDS011;9390;51.244;6.982;2022-12-31T14:30:26;7.03;;;2.08;;
18520;SDS011;9390;51.244;6.982;2022-12-31T14:33:13;6.07;;;1.50;;
18520;SDS011;9390;51.244;6.982;2022-12-31T14:35:52;9.40;;;1.77;;
18520;SDS011;9390;51.244;6.982;2022-12-31T14:38:34;7.25;;;1.90;;
18520;SDS011;9390;51.244;6.982;2022-12-31T14:41:18;10.18;;;1.75;;
18520;SDS011;9390;51.244;6.982;2022-12-31T14:44:00;5.97;;;1.80;;
18520;SDS011;9390;51.244;6.982;2022-12-31T14:46:37;8.18;;;1.98;;
18520;SDS011;9390;51.244;6.982;2022-12-31T14:49:19;7.40;;;2.03;;
18520;SDS011;9390;51.244;6.982;2022-12-31T14:52:06;7.15;;;1.92;;
18520;SDS011;9390;51.244;6.982;2022-12-31T14:54:39;5.78;;;1.65;;
18520;SDS011;9390;51.244;6.982;2022-12-31T14:59:51;5.90;;;1.92;;
18520;SDS011;9390;51.244;6.982;2022-12-31T15:02:25;7.57;;;2.20;;
18520;SDS011;9390;51.244;6.982;2022-12-31T15:07:36;6.75;;;1.95;;
18520;SDS011;9390;51.244;6.982;2022-12-31T15:10:15;8.07;;;1.60;;
18520;SDS011;9390;51.244;6.982;2022-12-31T15:12:55;7.25;;;2.15;;
18520;SDS011;9390;51.244;6.982;2022-12-31T15:18:47;6.78;;;1.70;;
18520;SDS011;9390;51.244;6.982;2022-12-31T15:21:31;8.27;;;1.92;;
18520;SDS011;9390;51.244;6.982;2022-12-31T15:24:12;6.90;;;1.90;;
18520;SDS011;9390;51.244;6.982;2022-12-31T15:26:49;4.13;;;1.80;;
18520;SDS011;9390;51.244;6.982;2022-12-31T15:29:26;9.95;;;1.80;;
18520;SDS011;9390;51.244;6.982;2022-12-31T15:32:00;4.63;;;1.55;;
18520;SDS011;9390;51.244;6.982;2022-12-31T15:34:34;7.35;;;1.63;;
18520;SDS011;9390;51.244;6.982;2022-12-31T15:40:05;4.85;;;1.55;;
18520;SDS011;9390;51.244;6.982;2022-12-31T15:42:49;4.70;;;1.35;;
18520;SDS011;9390;51.244;6.982;2022-12-31T15:45:25;7.07;;;1.92;;
18520;SDS011;9390;51.244;6.982;2022-12-31T15:48:04;6.10;;;2.00;;
18520;SDS011;9390;51.244;6.982;2022-12-31T15:50:37;10.27;;;2.85;;
18520;SDS011;9390;51.244;6.982;2022-12-31T15:53:13;8.68;;;3.35;;
18520;SDS011;9390;51.244;6.982;2022-12-31T15:55:53;3.33;;;1.52;;
18520;SDS011;9390;51.244;6.982;2022-12-31T15:58:26;8.65;;;2.47;;
18520;SDS011;9390;51.244;6.982;2022-12-31T16:01:00;9.07;;;3.17;;
18520;SDS011;9390;51.244;6.982;2022-12-31T16:03:36;6.95;;;2.78;;
18520;SDS011;9390;51.244;6.982;2022-12-31T16:06:13;16.80;;;7.30;;
18520;SDS011;9390;51.244;6.982;2022-12-31T16:11:17;10.05;;;3.13;;
18520;SDS011;9390;51.244;6.982;2022-12-31T16:13:51;6.35;;;2.13;;
18520;SDS011;9390;51.244;6.982;2022-12-31T16:16:25;7.65;;;2.15;;
18520;SDS011;9390;51.244;6.982;2022-12-31T16:18:57;6.18;;;1.90;;
18520;SDS011;9390;51.244;6.982;2022-12-31T16:21:30;6.13;;;1.92;;
18520;SDS011;9390;51.244;6.982;2022-12-31T16:24:03;5.10;;;1.92;;
18520;SDS011;9390;51.244;6.982;2022-12-31T16:26:38;9.98;;;2.05;;
18520;SDS011;9390;51.244;6.982;2022-12-31T16:29:17;5.07;;;1.70;;
18520;SDS011;9390;51.244;6.982;2022-12-31T16:31:50;4.65;;;1.80;;
18520;SDS011;9390;51.244;6.982;2022-12-31T16:34:24;6.68;;;1.92;;
18520;SDS011;9390;51.244;6.982;2022-12-31T16:36:56;7.78;;;2.00;;
18520;SDS011;9390;51.244;6.982;2022-12-31T16:39:29;8.77;;;2.40;;
18520;SDS011;9390;51.244;6.982;2022-12-31T16:42:13;4.90;;;1.63;;
18520;SDS011;9390;51.244;6.982;2022-12-31T16:44:49;7.47;;;1.83;;